Hollybush, Kentucky
Current Conditions -  °F | °C
As of 11:55 PM on Sunday 21 Dec 2014 (Local Time) from KPBX Reporting Station
Scattered Clouds Scattered Clouds  
Wind Chill: 33°   Ceiling: Unl
Heat Index: 33°   Visibility: 10mi
Dew Point: 28°   Wind: 3mph
Humidity: 80%   Direction: 160°SSE
Pressure: 30.11"   Gusts: NA
Location:  37.3567°N, 82.8301°W
Report Text: KPBX 220455Z AUTO 16003KT 10SM SCT036 01/M02 A3011 RMK AO2 T00061025 400651037
Loading
Personal Weather Stations






























Interactive Weather Map New forecast layout! Learn more

10-Day Weather Forecast

Advertisements
Track Severe Weather on mobile